createdAt,value
2022-10-10T00:00:47.970Z,98437.47
2022-10-10T00:03:14.401Z,98428.97
2022-10-10T00:05:41.001Z,98423.69
2022-10-10T00:08:07.877Z,98392.44
2022-10-10T00:10:35.751Z,98392.38
2022-10-10T00:13:02.189Z,98383.16
2022-10-10T00:15:28.672Z,98337.88
2022-10-10T00:17:55.050Z,98352.88
2022-10-10T00:20:21.475Z,98355.88
2022-10-10T00:22:48.214Z,98307.41
2022-10-10T00:25:15.006Z,98240.75
2022-10-10T00:27:41.665Z,98230.34
2022-10-10T00:30:08.727Z,98213.00
2022-10-10T00:32:35.535Z,98204.75
2022-10-10T00:35:02.093Z,98160.69
2022-10-10T00:37:28.452Z,98133.09
2022-10-10T00:39:54.807Z,98109.28
2022-10-10T00:42:21.203Z,98049.81
2022-10-10T00:44:47.594Z,97987.94
2022-10-10T00:47:13.991Z,97960.09
2022-10-10T00:49:42.075Z,97975.00
2022-10-10T00:52:09.729Z,98052.03
2022-10-10T00:54:36.303Z,98102.06
2022-10-10T00:57:10.339Z,98151.22
2022-10-10T00:59:37.424Z,98240.44
2022-10-10T01:02:04.041Z,98291.50
2022-10-10T01:04:44.459Z,98304.06
2022-10-10T01:07:28.593Z,98302.75
2022-10-10T01:09:56.519Z,98282.16
2022-10-10T01:12:41.186Z,98267.22
2022-10-10T01:15:26.477Z,98213.38
2022-10-10T01:18:15.174Z,98170.06
2022-10-10T01:21:29.821Z,98111.09
2022-10-10T01:24:10.100Z,98073.97
2022-10-10T01:27:00.437Z,98071.53
2022-10-10T01:29:36.332Z,98118.88
2022-10-10T01:32:11.587Z,98092.22
2022-10-10T01:34:55.956Z,98062.22
2022-10-10T01:37:33.040Z,98041.34
2022-10-10T01:40:13.279Z,98083.38
2022-10-10T01:42:50.526Z,98081.66
2022-10-10T01:45:17.335Z,98108.91
2022-10-10T01:47:43.760Z,98152.66
2022-10-10T01:50:14.017Z,98133.72
2022-10-10T01:52:53.248Z,98118.09
2022-10-10T01:55:37.857Z,98142.78
2022-10-10T01:58:09.168Z,98125.75
2022-10-10T02:01:27.013Z,98119.63
2022-10-10T02:04:13.816Z,98138.09
2022-10-10T02:07:05.141Z,98140.09
2022-10-10T02:09:41.221Z,98147.13
2022-10-10T02:12:08.106Z,98156.84
2022-10-10T02:14:38.014Z,98128.31
2022-10-10T02:17:04.427Z,98105.84
2022-10-10T02:19:30.793Z,98069.50
2022-10-10T02:21:57.198Z,98078.44
2022-10-10T02:24:24.331Z,98057.78
2022-10-10T02:26:56.752Z,98072.63
2022-10-10T02:29:27.027Z,98057.97
2022-10-10T02:32:14.068Z,98034.59
2022-10-10T02:34:43.096Z,98054.53
2022-10-10T02:37:12.400Z,98092.09
2022-10-10T02:39:47.433Z,98137.31
2022-10-10T02:42:15.061Z,98148.69
2022-10-10T02:44:41.440Z,98139.50
2022-10-10T02:47:07.996Z,98135.50
2022-10-10T02:49:34.694Z,98088.75
2022-10-10T02:52:01.395Z,98082.03
2022-10-10T02:54:27.859Z,98066.44
2022-10-10T02:56:54.293Z,98049.94
2022-10-10T02:59:20.719Z,98055.13
2022-10-10T03:01:47.239Z,98092.41
2022-10-10T03:04:13.788Z,98095.91
2022-10-10T03:06:40.188Z,98089.88
2022-10-10T03:09:06.580Z,98095.06
2022-10-10T03:11:33.105Z,98070.78
2022-10-10T03:13:59.493Z,98098.72
2022-10-10T03:16:25.880Z,98064.72
2022-10-10T03:18:52.806Z,98086.59
2022-10-10T03:21:19.292Z,98079.78
2022-10-10T03:23:45.687Z,98097.19
2022-10-10T03:26:12.045Z,98086.09
2022-10-10T03:28:38.512Z,98087.78
2022-10-10T03:31:05.156Z,98076.63
2022-10-10T03:33:31.558Z,98091.41
2022-10-10T03:35:57.969Z,98058.53
2022-10-10T03:38:24.361Z,98030.63
2022-10-10T03:40:50.801Z,98047.28
2022-10-10T03:43:17.254Z,98007.50
2022-10-10T03:45:47.653Z,98001.59
2022-10-10T03:48:14.362Z,98009.69
2022-10-10T03:50:40.796Z,97975.94
2022-10-10T03:53:07.323Z,97946.44
2022-10-10T03:55:33.722Z,97932.53
2022-10-10T03:58:00.107Z,97953.47
2022-10-10T04:00:26.573Z,97951.78
2022-10-10T04:02:53.751Z,97949.34
2022-10-10T04:05:20.302Z,97951.25
2022-10-10T04:07:46.677Z,97920.00
2022-10-10T04:10:13.082Z,97903.53
2022-10-10T04:12:39.491Z,97898.34
2022-10-10T04:15:06.435Z,97920.91
2022-10-10T04:17:32.821Z,97959.94
2022-10-10T04:19:59.308Z,97973.00
2022-10-10T04:22:25.727Z,97976.50
2022-10-10T04:24:52.099Z,97988.84
2022-10-10T04:27:18.502Z,97972.47
2022-10-10T04:29:44.902Z,97950.97
2022-10-10T04:32:11.304Z,97963.19
2022-10-10T04:34:37.667Z,97955.47
2022-10-10T04:37:04.072Z,97925.19
2022-10-10T04:39:30.466Z,97894.78
2022-10-10T04:41:56.991Z,97902.44
2022-10-10T04:44:23.377Z,97924.13
2022-10-10T04:46:49.753Z,97938.00
2022-10-10T04:49:16.202Z,97905.78
2022-10-10T04:51:42.639Z,97878.03
2022-10-10T04:54:09.926Z,97850.28
2022-10-10T04:56:36.333Z,97824.41
2022-10-10T04:59:02.739Z,97784.72
2022-10-10T05:01:29.269Z,97718.75
2022-10-10T05:03:55.978Z,97663.31
2022-10-10T05:06:22.372Z,97570.47
2022-10-10T05:08:48.749Z,97525.41
2022-10-10T05:11:15.158Z,97545.44
2022-10-10T05:13:41.548Z,97562.88
2022-10-10T05:16:07.936Z,97592.31
2022-10-10T05:18:37.291Z,97582.94
2022-10-10T05:21:04.093Z,97559.50
2022-10-10T05:23:30.535Z,97563.84
2022-10-10T05:25:57.141Z,97509.44
2022-10-10T05:28:23.597Z,97492.94
2022-10-10T05:30:51.074Z,97483.78
2022-10-10T05:33:17.612Z,97433.66
2022-10-10T05:35:44.206Z,97408.81
2022-10-10T05:38:10.712Z,97354.56
2022-10-10T05:40:40.383Z,97272.84
2022-10-10T05:43:06.771Z,97234.88
2022-10-10T05:45:33.180Z,97207.06
2022-10-10T05:47:59.552Z,97176.66
2022-10-10T05:50:39.023Z,97160.34
2022-10-10T05:53:06.787Z,97140.50
2022-10-10T05:55:33.481Z,97100.09
2022-10-10T05:57:59.857Z,97057.09
2022-10-10T06:00:26.330Z,96986.38
2022-10-10T06:02:53.116Z,96969.59
2022-10-10T06:05:20.119Z,96965.63
2022-10-10T06:08:04.577Z,96941.78
2022-10-10T06:10:42.272Z,96926.97
2022-10-10T06:13:09.459Z,96906.72
2022-10-10T06:15:35.862Z,96853.16
2022-10-10T06:18:02.391Z,96823.16
2022-10-10T06:20:28.765Z,96729.16
2022-10-10T06:22:55.648Z,96656.66
2022-10-10T06:25:38.993Z,96608.50
2022-10-10T06:28:06.819Z,96545.75
2022-10-10T06:30:34.985Z,96416.81
2022-10-10T06:33:01.592Z,96210.22
2022-10-10T06:35:28.103Z,96095.41
2022-10-10T06:37:54.499Z,96069.00
2022-10-10T06:40:20.881Z,96047.94
2022-10-10T06:42:47.285Z,96001.19
2022-10-10T06:45:13.929Z,95927.66
2022-10-10T06:47:41.908Z,95886.09
2022-10-10T06:50:08.630Z,95807.09
2022-10-10T06:52:35.026Z,95759.53
2022-10-10T06:55:01.419Z,95748.03
2022-10-10T06:57:27.871Z,95710.97
2022-10-10T06:59:54.253Z,95675.25
2022-10-10T07:02:20.692Z,95638.84
2022-10-10T07:04:47.078Z,95609.28
2022-10-10T07:07:13.509Z,95592.13
2022-10-10T07:09:39.942Z,95558.56
2022-10-10T07:12:06.356Z,95528.44
2022-10-10T07:14:32.747Z,95513.06
2022-10-10T07:16:59.112Z,95493.44
2022-10-10T07:19:25.507Z,95457.09
2022-10-10T07:21:51.904Z,95442.53
2022-10-10T07:24:18.321Z,95430.84
2022-10-10T07:26:44.711Z,95421.78
2022-10-10T07:29:11.101Z,95406.84
2022-10-10T07:31:37.463Z,95364.59
2022-10-10T07:34:05.595Z,95332.44
2022-10-10T07:36:32.024Z,95293.44
2022-10-10T07:38:58.470Z,95272.00
2022-10-10T07:41:24.920Z,95259.66
2022-10-10T07:43:55.808Z,95254.25
2022-10-10T07:46:22.275Z,95231.34
2022-10-10T07:48:49.227Z,95206.97
2022-10-10T07:51:15.920Z,95186.78
2022-10-10T07:53:44.068Z,95175.56
2022-10-10T07:56:11.838Z,95174.75
2022-10-10T07:58:38.266Z,95166.94
2022-10-10T08:01:05.829Z,95156.88
2022-10-10T08:03:32.211Z,95144.31
2022-10-10T08:05:58.611Z,95111.94
2022-10-10T08:08:24.986Z,95067.63
2022-10-10T08:10:51.432Z,95040.28
2022-10-10T08:13:17.824Z,95036.34
2022-10-10T08:15:44.314Z,95023.50
2022-10-10T08:18:10.713Z,95011.94
2022-10-10T08:20:37.116Z,95050.00
2022-10-10T08:23:03.508Z,95262.41
2022-10-10T08:25:29.917Z,95657.53
2022-10-10T08:27:56.322Z,96121.97
2022-10-10T08:30:22.895Z,96518.53
2022-10-10T08:32:49.660Z,96710.09
2022-10-10T08:35:16.247Z,96747.94
2022-10-10T08:37:42.667Z,96733.47
2022-10-10T08:40:12.761Z,96842.59
2022-10-10T08:42:53.001Z,97124.81
2022-10-10T08:45:24.788Z,97503.75
2022-10-10T08:47:56.401Z,97613.28
2022-10-10T08:50:29.744Z,97635.41
2022-10-10T08:53:03.148Z,97747.66
2022-10-10T08:55:33.862Z,97783.84
2022-10-10T08:58:00.231Z,97939.53
2022-10-10T09:00:29.907Z,98052.47
2022-10-10T09:02:58.190Z,98100.81
2022-10-10T09:05:40.106Z,98197.13
2022-10-10T09:08:25.728Z,98212.03
2022-10-10T09:11:05.439Z,98291.63
2022-10-10T09:13:47.220Z,98285.53
2022-10-10T09:16:51.038Z,98208.91
2022-10-10T09:19:35.770Z,98269.47
2022-10-10T09:22:04.891Z,98336.38
2022-10-10T09:24:42.539Z,98256.94
2022-10-10T09:27:13.033Z,98272.34
2022-10-10T09:29:42.517Z,98315.69
2022-10-10T09:32:15.762Z,98324.69
2022-10-10T09:35:19.142Z,98444.75
2022-10-10T09:37:47.663Z,98552.56
2022-10-10T09:40:37.652Z,98620.84
2022-10-10T09:43:12.284Z,98697.28
2022-10-10T09:45:39.328Z,98738.13
2022-10-10T09:48:05.964Z,98741.31
2022-10-10T09:50:32.349Z,98770.47
2022-10-10T09:52:58.742Z,98789.75
2022-10-10T09:55:28.110Z,98969.69
2022-10-10T09:57:56.722Z,99018.78
2022-10-10T10:00:43.455Z,99039.44
2022-10-10T10:03:12.931Z,99059.28
2022-10-10T10:05:40.517Z,99092.25
2022-10-10T10:08:45.600Z,99119.69
2022-10-10T10:11:25.950Z,99143.97
2022-10-10T10:13:56.475Z,99180.03
2022-10-10T10:16:30.957Z,99214.03
2022-10-10T10:18:57.351Z,99253.91
2022-10-10T10:21:24.216Z,99259.56
2022-10-10T10:23:50.566Z,99288.72
2022-10-10T10:26:20.093Z,99345.97
2022-10-10T10:28:47.137Z,99418.31
2022-10-10T10:31:41.428Z,99323.72
2022-10-10T10:34:19.034Z,99341.41
2022-10-10T10:37:14.940Z,99348.88
2022-10-10T10:39:50.489Z,99433.78
2022-10-10T10:42:29.209Z,99421.25
2022-10-10T10:45:28.063Z,99453.09
2022-10-10T10:48:00.164Z,99505.91
2022-10-10T10:50:46.262Z,99404.47
2022-10-10T10:53:27.613Z,99481.06
2022-10-10T11:00:20.685Z,99626.72
2022-10-10T11:02:08.262Z,99646.91
2022-10-10T11:05:18.838Z,99611.81
2022-10-10T11:07:58.519Z,99731.78
2022-10-10T11:10:30.667Z,99782.69
2022-10-10T11:13:12.236Z,99893.81
2022-10-10T11:18:31.193Z,100009.91
2022-10-10T11:21:05.037Z,100098.72
2022-10-10T11:23:34.526Z,100162.00
2022-10-10T11:26:11.467Z,100234.34
2022-10-10T11:28:40.258Z,100286.44
2022-10-10T11:31:11.677Z,100276.69
2022-10-10T11:33:45.966Z,100273.19
2022-10-10T11:36:19.880Z,100275.84
2022-10-10T11:38:54.847Z,100301.06
2022-10-10T11:41:27.131Z,100317.88
2022-10-10T11:43:55.948Z,100281.16
2022-10-10T11:46:46.178Z,100342.75
2022-10-10T11:49:12.543Z,100366.25
2022-10-10T11:52:09.609Z,100381.22
2022-10-10T11:55:02.241Z,100362.13
2022-10-10T11:58:00.930Z,100385.34
2022-10-10T12:00:27.346Z,100396.91
2022-10-10T12:02:53.788Z,100442.84
2022-10-10T12:05:28.061Z,100454.34
2022-10-10T12:07:57.608Z,100515.81
2022-10-10T12:10:30.384Z,100546.69
2022-10-10T12:12:59.143Z,100569.88
2022-10-10T12:15:28.222Z,100571.25
2022-10-10T12:17:54.693Z,100564.59
2022-10-10T12:20:21.055Z,100570.25
2022-10-10T12:22:47.664Z,100588.13
2022-10-10T12:25:25.640Z,100586.41
2022-10-10T12:28:13.278Z,100580.03
2022-10-10T12:30:58.214Z,100580.13
2022-10-10T12:33:31.344Z,100581.38
2022-10-10T12:35:57.728Z,100595.25
2022-10-10T12:38:27.905Z,100585.66
2022-10-10T12:40:57.481Z,100593.50
2022-10-10T12:43:50.302Z,100592.56
2022-10-10T12:46:27.948Z,100590.88
2022-10-10T12:49:05.845Z,100593.88
2022-10-10T12:51:33.589Z,100611.25
2022-10-10T12:54:00.901Z,100607.06
2022-10-10T12:56:37.841Z,100599.41
2022-10-10T12:59:05.948Z,100602.47
2022-10-10T13:01:34.782Z,100594.50
2022-10-10T13:04:01.230Z,100602.59
2022-10-10T13:06:33.604Z,100607.75
2022-10-10T13:09:00.180Z,100611.47
2022-10-10T13:11:26.652Z,100600.41
2022-10-10T13:13:54.479Z,100600.59
2022-10-10T13:16:22.928Z,100597.00
2022-10-10T13:18:50.793Z,100601.19
2022-10-10T13:21:22.555Z,100598.47
2022-10-10T13:26:43.992Z,100596.22
2022-10-10T13:29:31.076Z,100600.41
2022-10-10T13:31:59.783Z,100592.06
2022-10-10T13:34:28.258Z,100593.16
2022-10-10T13:36:58.728Z,100585.34
2022-10-10T13:39:25.178Z,100583.13
2022-10-10T13:41:51.603Z,100587.84
2022-10-10T13:44:26.049Z,100589.84
2022-10-10T13:46:52.572Z,100592.09
2022-10-10T13:49:26.847Z,100588.25
2022-10-10T13:52:02.016Z,100593.16
2022-10-10T13:55:13.553Z,100602.09
2022-10-10T13:57:40.016Z,100587.31
2022-10-10T14:00:14.014Z,100593.97
2022-10-10T14:02:41.053Z,100596.84
2022-10-10T14:05:08.249Z,100602.19
2022-10-10T14:07:34.687Z,100592.78
2022-10-10T14:10:10.626Z,100601.31
2022-10-10T14:12:51.387Z,100601.44
2022-10-10T14:15:31.261Z,100609.22
2022-10-10T14:17:57.667Z,100607.63
2022-10-10T14:20:24.033Z,100612.47
2022-10-10T14:22:50.818Z,100612.84
2022-10-10T14:25:17.195Z,100618.06
2022-10-10T14:27:43.591Z,100609.41
2022-10-10T14:30:16.213Z,100613.41
2022-10-10T14:32:45.439Z,100602.19
2022-10-10T14:35:15.347Z,100615.81
2022-10-10T14:37:41.793Z,100626.09
2022-10-10T14:40:20.065Z,100618.31
2022-10-10T14:42:46.859Z,100611.19
2022-10-10T14:45:14.433Z,100617.47
2022-10-10T14:47:40.981Z,100610.41
2022-10-10T14:50:19.443Z,100616.59
2022-10-10T14:52:46.049Z,100627.22
2022-10-10T14:55:12.609Z,100617.56
2022-10-10T14:57:39.022Z,100631.75
2022-10-10T15:00:06.602Z,100626.25
2022-10-10T15:02:33.009Z,100629.69
2022-10-10T15:05:03.706Z,100621.06
2022-10-10T15:07:30.078Z,100619.81
2022-10-10T15:10:31.636Z,100613.94
2022-10-10T15:12:43.781Z,100618.44
2022-10-10T15:15:11.466Z,100602.03
2022-10-10T15:17:37.976Z,100612.22
2022-10-10T15:20:05.515Z,100611.13
2022-10-10T15:22:34.697Z,100612.56
2022-10-10T15:25:05.123Z,100607.06
2022-10-10T15:27:32.733Z,100604.03
2022-10-10T15:29:59.499Z,100597.72
2022-10-10T15:32:26.114Z,100602.34
2022-10-10T15:34:52.602Z,100592.34
2022-10-10T15:37:19.227Z,100585.66
2022-10-10T15:39:46.131Z,100578.03
2022-10-10T15:42:22.157Z,100557.09
2022-10-10T15:44:49.423Z,100542.25
2022-10-10T15:47:17.390Z,100521.56
2022-10-10T15:49:43.808Z,100505.06
2022-10-10T15:52:10.587Z,100487.94
2022-10-10T15:54:37.040Z,100469.56
2022-10-10T15:57:03.528Z,100462.38
2022-10-10T15:59:30.031Z,100425.78
2022-10-10T16:01:56.555Z,100361.31
2022-10-10T16:04:23.125Z,100345.75
2022-10-10T16:06:54.601Z,100246.13
2022-10-10T16:09:35.612Z,100253.72
2022-10-10T16:12:02.092Z,100267.47
2022-10-10T16:14:28.874Z,100313.00
2022-10-10T16:16:55.511Z,100309.34
2022-10-10T16:19:21.888Z,100200.50
2022-10-10T16:21:48.267Z,100152.44
2022-10-10T16:24:15.177Z,100148.03
2022-10-10T16:26:44.491Z,100189.06
2022-10-10T16:29:11.020Z,100238.25
2022-10-10T16:31:40.029Z,100278.53
2022-10-10T16:34:06.727Z,100296.56
2022-10-10T16:36:37.239Z,100339.66
2022-10-10T16:39:03.950Z,100357.69
2022-10-10T16:41:48.512Z,100374.53
2022-10-10T16:44:16.221Z,100399.31
2022-10-10T16:46:42.590Z,100416.22
2022-10-10T16:49:09.730Z,100411.16
2022-10-10T16:51:36.223Z,100435.16
2022-10-10T16:54:02.905Z,100458.16
2022-10-10T16:56:29.854Z,100485.22
2022-10-10T16:58:57.918Z,100494.19
2022-10-10T17:01:24.405Z,100499.91
2022-10-10T17:03:53.693Z,100521.09
2022-10-10T17:06:21.590Z,100518.84
2022-10-10T17:08:48.954Z,100505.16
2022-10-10T17:11:17.023Z,100500.16
2022-10-10T17:13:43.586Z,100522.91
2022-10-10T17:16:59.392Z,100543.78
2022-10-10T17:19:00.336Z,100546.72
2022-10-10T17:21:26.726Z,100554.97
2022-10-10T17:23:53.166Z,100572.41
2022-10-10T17:26:22.531Z,100577.88
2022-10-10T17:28:58.684Z,100585.19
2022-10-10T17:31:25.389Z,100599.50
2022-10-10T17:33:54.391Z,100587.41
2022-10-10T17:36:22.498Z,100594.50
2022-10-10T17:38:51.811Z,100601.63
2022-10-10T17:41:19.595Z,100602.25
2022-10-10T17:43:46.016Z,100609.50
2022-10-10T17:46:33.679Z,100619.97
2022-10-10T17:49:00.520Z,100635.84
2022-10-10T17:51:29.818Z,100637.59
2022-10-10T17:53:58.711Z,100612.22
2022-10-10T17:56:25.099Z,100588.88
2022-10-10T17:58:51.492Z,100505.28
2022-10-10T18:01:18.534Z,100463.59
2022-10-10T18:03:52.913Z,100414.94
2022-10-10T18:06:20.827Z,100331.72
2022-10-10T18:08:48.379Z,100267.38
2022-10-10T18:11:19.137Z,100230.88
2022-10-10T18:13:45.584Z,100219.09
2022-10-10T18:16:13.569Z,100078.88
2022-10-10T18:18:40.675Z,100003.59
2022-10-10T18:21:08.310Z,99956.75
2022-10-10T18:23:34.768Z,99860.22
2022-10-10T18:26:17.280Z,99714.53
2022-10-10T18:28:43.794Z,99659.44
2022-10-10T18:31:13.468Z,99597.16
2022-10-10T18:33:40.797Z,99490.97
2022-10-10T18:36:08.194Z,99470.06
2022-10-10T18:38:34.648Z,99418.34
2022-10-10T18:41:05.496Z,99385.28
2022-10-10T18:43:32.193Z,99314.50
2022-10-10T18:46:02.405Z,99162.22
2022-10-10T18:48:28.970Z,99074.47
2022-10-10T18:51:29.554Z,98948.31
2022-10-10T18:54:00.685Z,98829.59
2022-10-10T18:56:28.657Z,98717.22
2022-10-10T18:58:56.452Z,98637.91
2022-10-10T19:01:24.810Z,98570.25
2022-10-10T19:03:51.445Z,98467.56
2022-10-10T19:06:17.927Z,98483.38
2022-10-10T19:08:44.448Z,98464.22
2022-10-10T19:11:23.566Z,98399.69
2022-10-10T19:13:50.227Z,98300.59
2022-10-10T19:16:16.713Z,98072.53
2022-10-10T19:18:46.234Z,97654.81
2022-10-10T19:21:12.746Z,97170.78
2022-10-10T19:23:39.249Z,96437.56
2022-10-10T19:26:07.338Z,95841.00
2022-10-10T19:28:34.238Z,95392.69
2022-10-10T19:31:12.144Z,94733.28
2022-10-10T19:33:38.571Z,94307.84
2022-10-10T19:36:09.423Z,93901.91
2022-10-10T19:38:36.893Z,93618.41
2022-10-10T19:41:07.368Z,93437.09
2022-10-10T19:43:34.123Z,93350.91
2022-10-10T19:46:04.325Z,93263.09
2022-10-10T19:48:32.710Z,93198.41
2022-10-10T19:50:59.441Z,93154.34
2022-10-10T19:53:25.811Z,93022.63
2022-10-10T19:56:02.545Z,92900.66
2022-10-10T19:58:29.160Z,92780.56
2022-10-10T20:00:57.172Z,92639.13
2022-10-10T20:03:23.705Z,92537.97
2022-10-10T20:05:50.119Z,92444.41
2022-10-10T20:08:16.757Z,92402.09
2022-10-10T20:10:43.573Z,92377.63
2022-10-10T20:13:12.344Z,92372.38
2022-10-10T20:15:42.563Z,92444.13
2022-10-10T20:18:09.036Z,92564.19
2022-10-10T20:20:43.717Z,92789.94
2022-10-10T20:23:10.633Z,92985.66
2022-10-10T20:25:38.794Z,93227.44
2022-10-10T20:28:05.440Z,93491.25
2022-10-10T20:30:32.261Z,93737.72
2022-10-10T20:32:58.657Z,93994.59
2022-10-10T20:35:25.051Z,94265.84
2022-10-10T20:37:51.445Z,94476.97
2022-10-10T20:40:20.787Z,94674.69
2022-10-10T20:42:47.186Z,94841.25
2022-10-10T20:45:13.557Z,94986.94
2022-10-10T20:47:39.996Z,95068.38
2022-10-10T20:50:07.335Z,95168.59
2022-10-10T20:52:33.717Z,95293.09
2022-10-10T20:55:00.111Z,95306.34
2022-10-10T20:57:26.591Z,95358.88
2022-10-10T20:59:53.007Z,95337.78
2022-10-10T21:02:19.696Z,95380.19
2022-10-10T21:04:46.212Z,95401.91
2022-10-10T21:07:13.337Z,95447.13
2022-10-10T21:09:39.880Z,95498.50
2022-10-10T21:12:06.447Z,95489.16
2022-10-10T21:14:32.828Z,95531.06
2022-10-10T21:16:59.298Z,95506.44
2022-10-10T21:19:25.786Z,95497.09
2022-10-10T21:21:52.168Z,95486.22
2022-10-10T21:24:18.619Z,95452.25
2022-10-10T21:26:45.745Z,95417.22
2022-10-10T21:29:12.144Z,95441.03
2022-10-10T21:31:39.143Z,95411.50
2022-10-10T21:34:06.683Z,95461.94
2022-10-10T21:36:33.599Z,95507.56
2022-10-10T21:39:00.904Z,95551.53
2022-10-10T21:41:27.690Z,95576.16
2022-10-10T21:43:55.358Z,95556.47
2022-10-10T21:46:24.059Z,95568.47
2022-10-10T21:48:51.827Z,95563.06
2022-10-10T21:51:18.501Z,95558.69
2022-10-10T21:53:44.924Z,95553.97
2022-10-10T21:56:12.778Z,95528.41
2022-10-10T21:58:41.276Z,95520.25
2022-10-10T22:01:12.222Z,95506.16
2022-10-10T22:03:38.748Z,95494.84
2022-10-10T22:06:07.180Z,95483.06
2022-10-10T22:08:34.438Z,95475.91
2022-10-10T22:11:04.852Z,95450.56
2022-10-10T22:13:31.284Z,95404.31
2022-10-10T22:15:57.988Z,95358.13
2022-10-10T22:18:24.492Z,95356.84
2022-10-10T22:20:51.022Z,95312.94
2022-10-10T22:23:17.818Z,95301.69
2022-10-10T22:25:48.519Z,95273.06
2022-10-10T22:28:15.323Z,95269.38
2022-10-10T22:30:41.797Z,95237.50
2022-10-10T22:33:08.336Z,95201.16
2022-10-10T22:35:34.808Z,95152.97
2022-10-10T22:38:01.717Z,95146.50
2022-10-10T22:40:28.655Z,95137.09
2022-10-10T22:42:55.296Z,95122.72
2022-10-10T22:45:21.775Z,95108.16
2022-10-10T22:47:48.172Z,95107.41
2022-10-10T22:50:14.560Z,95091.69
2022-10-10T22:52:41.096Z,95085.28
2022-10-10T22:55:08.167Z,95076.81
2022-10-10T22:57:34.860Z,95066.16
2022-10-10T23:00:01.309Z,95091.81
2022-10-10T23:02:27.735Z,95080.69
2022-10-10T23:04:54.159Z,95076.09
2022-10-10T23:07:20.560Z,95089.53
2022-10-10T23:09:47.673Z,95111.22
2022-10-10T23:12:14.268Z,95113.44
2022-10-10T23:14:40.844Z,95158.25
2022-10-10T23:17:07.233Z,95146.94
2022-10-10T23:19:33.589Z,95145.03
2022-10-10T23:21:59.990Z,95153.56
2022-10-10T23:24:26.475Z,95137.41
2022-10-10T23:26:52.857Z,95137.56
2022-10-10T23:29:19.220Z,95078.81
2022-10-10T23:31:45.720Z,95032.03
2022-10-10T23:34:12.157Z,94996.75
2022-10-10T23:36:38.549Z,94969.59
2022-10-10T23:39:09.605Z,94949.28
2022-10-10T23:41:36.420Z,94948.38
2022-10-10T23:44:02.854Z,94934.94
2022-10-10T23:46:29.317Z,94943.06
2022-10-10T23:48:55.716Z,94976.25
2022-10-10T23:51:22.174Z,95027.88
2022-10-10T23:53:48.575Z,95025.53
2022-10-10T23:56:14.961Z,95054.88
2022-10-10T23:58:41.350Z,95084.16
